Time;durP1;ratioP1;P1;durP2;ratioP2;P2;SDS_P1;SDS_P2;PMS_P1;PMS_P2;Temp;Humidity;BMP_temperature;BMP_pressure;BME280_temperature;BME280_humidity;BME280_pressure;Samples;Min_cycle;Max_cycle;Signal;HPM_P1;HPM_P2
2022/10/17 00:01:12;;;;;;;75.32;39.88;;;11.70;99.90;;;;;;6340572;22;19998;-80
2022/10/17 00:03:39;;;;;;;76.65;40.40;;;11.70;99.90;;;;;;6340129;22;19990;-78
2022/10/17 00:06:13;;;;;;;70.05;36.67;;;11.70;99.90;;;;;;6312547;22;20003;-81
2022/10/17 00:08:40;;;;;;;79.07;38.42;;;11.70;99.90;;;;;;6340639;22;19991;-83
2022/10/17 00:11:26;;;;;;;76.85;36.08;;;11.60;99.90;;;;;;6313048;22;19999;-82
2022/10/17 00:13:54;;;;;;;67.35;34.22;;;11.60;99.90;;;;;;6312919;22;19994;-81
2022/10/17 00:16:32;;;;;;;62.08;31.42;;;11.60;99.90;;;;;;6340260;22;20324;-80
2022/10/17 00:18:58;;;;;;;65.38;30.58;;;11.60;99.90;;;;;;6340969;22;19987;-81
2022/10/17 00:21:24;;;;;;;56.40;31.08;;;11.60;99.90;;;;;;6312751;22;20002;-79
2022/10/17 00:23:51;;;;;;;52.70;29.40;;;11.60;99.90;;;;;;6339997;22;20073;-78
2022/10/17 00:26:18;;;;;;;56.80;30.73;;;11.50;99.90;;;;;;6340552;22;19999;-79
2022/10/17 00:28:50;;;;;;;55.80;29.30;;;11.50;99.90;;;;;;6340510;22;19987;-78
2022/10/17 00:31:19;;;;;;;56.28;29.50;;;11.50;99.90;;;;;;6313220;22;20129;-78
2022/10/17 00:33:45;;;;;;;59.30;30.30;;;11.50;99.90;;;;;;6312828;22;20058;-78
2022/10/17 00:36:19;;;;;;;47.78;27.42;;;11.50;99.90;;;;;;6312949;22;20003;-80
2022/10/17 00:38:47;;;;;;;52.88;27.02;;;11.50;99.90;;;;;;6340751;22;19991;-78
2022/10/17 00:41:15;;;;;;;50.60;27.00;;;11.50;99.90;;;;;;6340614;22;20007;-78
2022/10/17 00:44:25;;;;;;;46.50;25.13;;;11.40;99.90;;;;;;6340769;22;20342;-78
2022/10/17 00:46:51;;;;;;;52.20;27.80;;;11.40;99.90;;;;;;6287550;22;20015;-78
2022/10/17 00:49:18;;;;;;;51.17;27.77;;;11.40;99.90;;;;;;6338440;22;19990;-77
2022/10/17 00:51:45;;;;;;;62.10;27.58;;;11.40;99.90;;;;;;6338312;22;20350;-78
2022/10/17 00:54:14;;;;;;;54.70;27.88;;;11.40;99.90;;;;;;6310542;22;20089;-77
2022/10/17 00:56:41;;;;;;;60.65;31.45;;;11.40;99.90;;;;;;6338265;22;20077;-78
2022/10/17 00:59:09;;;;;;;63.17;30.92;;;11.40;99.90;;;;;;6337689;22;19999;-79
2022/10/17 01:01:35;;;;;;;58.67;31.50;;;11.40;99.90;;;;;;6337288;22;20048;-78
2022/10/17 01:04:01;;;;;;;60.83;32.65;;;11.40;99.90;;;;;;6338176;22;20069;-77
2022/10/17 01:06:27;;;;;;;76.05;32.85;;;11.40;99.90;;;;;;6338075;22;20422;-79
2022/10/17 01:08:53;;;;;;;65.45;33.92;;;11.30;99.90;;;;;;6338311;22;20022;-78
2022/10/17 01:11:21;;;;;;;77.65;34.35;;;11.30;99.90;;;;;;6311961;22;20405;-77
2022/10/17 01:14:17;;;;;;;61.55;30.80;;;11.30;99.90;;;;;;6340356;22;19991;-77
2022/10/17 01:17:02;;;;;;;64.55;30.55;;;11.20;99.90;;;;;;6313134;22;20009;-78
2022/10/17 01:20:06;;;;;;;57.70;29.35;;;11.20;99.90;;;;;;6340237;22;20300;-78
2022/10/17 01:22:46;;;;;;;55.17;29.23;;;11.20;99.90;;;;;;6267805;22;20408;-79
2022/10/17 01:25:21;;;;;;;47.80;25.63;;;11.10;99.90;;;;;;6340073;22;19999;-76
2022/10/17 01:27:52;;;;;;;52.05;26.77;;;11.10;99.90;;;;;;6340557;22;19995;-77
2022/10/17 01:30:37;;;;;;;;;;;11.10;99.90;;;;;;6341041;22;20398;-79
2022/10/17 01:33:26;;;;;;;38.97;24.65;;;11.10;99.90;;;;;;6340596;22;19895;-80
2022/10/17 01:35:53;;;;;;;45.92;25.77;;;11.00;99.90;;;;;;6340110;22;20078;-79
2022/10/17 01:38:50;;;;;;;47.47;26.60;;;11.00;99.90;;;;;;6340300;22;19991;-79
2022/10/17 01:41:43;;;;;;;43.33;24.95;;;11.00;99.90;;;;;;6280391;22;20017;-78
2022/10/17 01:44:18;;;;;;;43.28;25.23;;;11.00;99.90;;;;;;6339927;22;20302;-78
2022/10/17 01:46:49;;;;;;;40.67;25.08;;;11.00;99.90;;;;;;6340645;22;19999;-77
2022/10/17 01:49:20;;;;;;;46.88;25.42;;;11.00;99.90;;;;;;6340592;22;20111;-78
2022/10/17 01:51:55;;;;;;;46.97;24.77;;;11.00;99.90;;;;;;6340278;22;19995;-79
2022/10/17 01:54:26;;;;;;;42.08;24.08;;;11.00;99.90;;;;;;6340373;22;19987;-80
2022/10/17 01:56:57;;;;;;;45.28;24.80;;;11.00;99.90;;;;;;6340543;22;19991;-78
2022/10/17 01:59:28;;;;;;;42.67;23.48;;;10.90;99.90;;;;;;6312508;22;20005;-77
2022/10/17 02:01:57;;;;;;;46.83;23.60;;;10.90;99.90;;;;;;6340032;22;20408;-79
2022/10/17 02:04:24;;;;;;;38.67;24.13;;;10.90;99.90;;;;;;6339758;22;19994;-79
2022/10/17 02:06:50;;;;;;;48.65;24.02;;;10.90;99.90;;;;;;6340394;22;19999;-81
2022/10/17 02:09:19;;;;;;;47.03;24.17;;;10.90;99.90;;;;;;6339781;22;19987;-78
2022/10/17 02:11:54;;;;;;;46.13;23.90;;;10.80;99.90;;;;;;6312353;22;20083;-78
2022/10/17 02:14:44;;;;;;;44.33;23.67;;;10.80;99.90;;;;;;6340730;22;19999;-79
2022/10/17 02:17:26;;;;;;;39.08;23.10;;;10.80;99.90;;;;;;6340275;22;19995;-79
2022/10/17 02:20:06;;;;;;;42.95;23.48;;;10.80;99.90;;;;;;6339997;22;20416;-79
2022/10/17 02:22:55;;;;;;;42.75;24.05;;;10.80;99.90;;;;;;6340070;22;19991;-81
2022/10/17 02:25:44;;;;;;;46.20;22.80;;;10.80;99.90;;;;;;6311307;22;20064;-78
2022/10/17 02:28:17;;;;;;;40.75;22.75;;;10.70;99.90;;;;;;6339983;22;20002;-80
2022/10/17 02:31:03;;;;;;;41.92;22.58;;;10.70;99.90;;;;;;6339636;22;19998;-78
2022/10/17 02:33:53;;;;;;;48.63;23.55;;;10.70;99.90;;;;;;6311758;22;20354;-77
2022/10/17 02:36:24;;;;;;;42.95;23.80;;;10.70;99.90;;;;;;6338343;22;20060;-79
2022/10/17 02:38:52;;;;;;;40.28;23.15;;;10.70;99.90;;;;;;6339223;22;20001;-80
2022/10/17 02:41:19;;;;;;;41.80;22.30;;;10.60;99.90;;;;;;6339247;22;20081;-79
2022/10/17 02:43:47;;;;;;;45.13;23.92;;;10.60;99.90;;;;;;6339627;22;19987;-77
2022/10/17 02:46:21;;;;;;;45.40;23.88;;;10.60;99.90;;;;;;6339654;22;19997;-78
2022/10/17 02:48:52;;;;;;;46.85;24.77;;;10.60;99.90;;;;;;6312341;22;20405;-80
2022/10/17 02:51:20;;;;;;;40.10;23.73;;;10.60;99.90;;;;;;6339849;22;19995;-79
2022/10/17 02:54:09;;;;;;;49.78;25.45;;;10.60;99.90;;;;;;6311875;22;20018;-78
2022/10/17 02:57:15;;;;;;;45.00;26.50;;;10.50;99.90;;;;;;6338705;22;19994;-76
2022/10/17 02:59:43;;;;;;;50.13;27.65;;;10.50;99.90;;;;;;6304243;22;19995;-78
2022/10/17 03:02:10;;;;;;;51.05;28.13;;;10.40;99.90;;;;;;6338890;22;20040;-77
2022/10/17 03:04:36;;;;;;;49.97;26.83;;;10.30;99.90;;;;;;6339189;22;20005;-78
2022/10/17 03:07:02;;;;;;;49.47;27.25;;;10.40;99.90;;;;;;6339358;22;20006;-80
2022/10/17 03:09:28;;;;;;;49.28;28.30;;;10.30;99.90;;;;;;6311346;22;20101;-78
2022/10/17 03:11:54;;;;;;;52.13;28.33;;;10.30;99.90;;;;;;6310925;22;20028;-77
2022/10/17 03:14:19;;;;;;;44.20;26.15;;;10.20;99.90;;;;;;6311501;22;20006;-77
2022/10/17 03:16:45;;;;;;;42.80;26.92;;;10.20;99.90;;;;;;6339543;22;20285;-77
2022/10/17 03:19:11;;;;;;;43.83;26.17;;;10.20;99.90;;;;;;6339173;22;19995;-78
2022/10/17 03:21:37;;;;;;;52.60;26.77;;;10.20;99.90;;;;;;6338606;22;20057;-77
2022/10/17 03:24:03;;;;;;;51.40;25.15;;;10.20;99.90;;;;;;6311641;22;20085;-77
2022/10/17 03:26:29;;;;;;;38.78;23.00;;;10.10;99.90;;;;;;6339134;22;19995;-77
2022/10/17 03:28:55;;;;;;;39.58;21.92;;;10.10;99.90;;;;;;6339111;22;20003;-80
2022/10/17 03:31:21;;;;;;;40.88;22.13;;;10.10;99.90;;;;;;6338913;22;19991;-80
2022/10/17 03:33:47;;;;;;;42.17;22.60;;;10.10;99.90;;;;;;6339109;22;19994;-80
2022/10/17 03:36:15;;;;;;;42.72;24.33;;;10.10;99.90;;;;;;6339251;22;20002;-79
2022/10/17 03:38:42;;;;;;;40.00;21.52;;;10.10;99.90;;;;;;6339369;22;20001;-79
2022/10/17 03:41:09;;;;;;;41.65;21.70;;;10.10;99.90;;;;;;6338903;22;20007;-80
2022/10/17 03:43:35;;;;;;;42.35;22.40;;;10.10;99.90;;;;;;6339093;22;20020;-80
2022/10/17 03:46:01;;;;;;;50.33;24.67;;;10.10;99.90;;;;;;6338942;22;19998;-79
2022/10/17 03:48:29;;;;;;;42.25;22.67;;;10.10;99.90;;;;;;6338771;22;20455;-79
2022/10/17 03:51:04;;;;;;;37.97;22.15;;;10.10;99.90;;;;;;6338951;22;20300;-78
2022/10/17 03:53:30;;;;;;;43.33;22.80;;;10.10;99.90;;;;;;6338945;22;20288;-78
2022/10/17 03:56:07;;;;;;;40.95;23.40;;;10.10;99.90;;;;;;6339154;22;20453;-79
2022/10/17 03:58:33;;;;;;;42.50;21.63;;;10.10;99.90;;;;;;6339371;22;20422;-79
2022/10/17 04:01:04;;;;;;;39.63;22.75;;;10.10;99.90;;;;;;6338440;22;19991;-78
2022/10/17 04:03:31;;;;;;;43.03;23.48;;;10.10;99.90;;;;;;6338871;22;19999;-79
2022/10/17 04:06:00;;;;;;;47.03;22.75;;;10.10;99.90;;;;;;6338725;22;20006;-80
2022/10/17 04:08:27;;;;;;;38.53;23.00;;;10.10;99.90;;;;;;6338972;22;19998;-80
2022/10/17 04:10:58;;;;;;;43.58;22.45;;;10.10;99.90;;;;;;6338993;22;19997;-79
2022/10/17 04:13:23;;;;;;;40.08;21.98;;;10.10;99.90;;;;;;6339330;22;19991;-79
2022/10/17 04:15:58;;;;;;;43.60;23.63;;;10.10;99.90;;;;;;6338509;22;20041;-78
2022/10/17 04:18:24;;;;;;;41.60;23.80;;;10.10;99.90;;;;;;6338605;22;19999;-78
2022/10/17 04:20:51;;;;;;;55.83;24.65;;;10.20;99.90;;;;;;6339050;22;20051;-76
2022/10/17 04:23:17;;;;;;;43.10;25.60;;;10.10;99.90;;;;;;6311196;22;20016;-78
2022/10/17 04:25:43;;;;;;;55.75;28.30;;;10.10;99.90;;;;;;6338397;22;20414;-77
2022/10/17 04:28:09;;;;;;;52.72;26.88;;;10.10;99.90;;;;;;6338951;22;19994;-81
2022/10/17 04:30:35;;;;;;;49.35;25.70;;;10.10;99.90;;;;;;6339324;22;19995;-78
2022/10/17 04:33:01;;;;;;;44.83;25.27;;;10.10;99.90;;;;;;6339869;22;20362;-79
2022/10/17 04:35:26;;;;;;;38.88;24.52;;;10.00;99.90;;;;;;6340606;22;19995;-78
2022/10/17 04:37:52;;;;;;;52.92;23.85;;;10.00;99.90;;;;;;6340603;22;19991;-80
2022/10/17 04:40:18;;;;;;;43.47;24.02;;;10.10;99.90;;;;;;6340644;22;20072;-80
2022/10/17 04:42:44;;;;;;;42.05;23.25;;;10.10;99.90;;;;;;6340733;22;20044;-80
2022/10/17 04:45:10;;;;;;;47.47;23.50;;;10.10;99.90;;;;;;6340678;22;20315;-79
2022/10/17 04:47:36;;;;;;;47.30;24.08;;;10.00;99.90;;;;;;6340705;22;20014;-80
2022/10/17 04:50:02;;;;;;;41.30;24.38;;;10.00;99.90;;;;;;6340869;22;19991;-79
2022/10/17 04:52:27;;;;;;;43.83;25.17;;;10.00;99.90;;;;;;6340750;22;19995;-79
2022/10/17 04:54:53;;;;;;;49.97;26.35;;;10.00;99.90;;;;;;6341068;22;20435;-78
2022/10/17 04:57:19;;;;;;;52.20;27.77;;;10.00;99.90;;;;;;6340532;22;20395;-79
2022/10/17 04:59:45;;;;;;;58.15;29.17;;;10.00;99.90;;;;;;6340275;22;20392;-78
2022/10/17 05:02:11;;;;;;;52.80;27.65;;;10.00;99.90;;;;;;6339947;22;20434;-80
2022/10/17 05:04:37;;;;;;;45.55;26.80;;;10.00;99.90;;;;;;6312861;22;19998;-78
2022/10/17 05:07:02;;;;;;;49.90;27.23;;;10.00;99.90;;;;;;6340042;22;19995;-78
2022/10/17 05:09:28;;;;;;;46.22;25.45;;;10.00;99.90;;;;;;6340318;22;19998;-78
2022/10/17 05:11:54;;;;;;;42.92;24.10;;;10.00;99.90;;;;;;6340323;22;19990;-78
2022/10/17 05:14:20;;;;;;;47.35;25.73;;;10.00;99.90;;;;;;6340156;22;20020;-78
2022/10/17 05:16:46;;;;;;;49.05;25.15;;;10.00;99.90;;;;;;6340147;22;19995;-78
2022/10/17 05:19:11;;;;;;;46.15;27.55;;;10.00;99.90;;;;;;6339758;22;19991;-80
2022/10/17 05:21:38;;;;;;;52.17;27.10;;;10.00;99.90;;;;;;6340095;22;19991;-79
2022/10/17 05:24:08;;;;;;;50.20;27.58;;;10.00;99.90;;;;;;6340001;22;20017;-77
2022/10/17 05:26:34;;;;;;;51.70;29.05;;;10.00;99.90;;;;;;6340234;22;20075;-79
2022/10/17 05:29:04;;;;;;;46.92;29.83;;;10.00;99.90;;;;;;6340073;22;20403;-79
2022/10/17 05:31:30;;;;;;;49.28;29.95;;;10.10;99.90;;;;;;6339754;22;20476;-78
2022/10/17 05:34:00;;;;;;;48.97;28.75;;;10.10;99.90;;;;;;6312468;22;20076;-78
2022/10/17 05:36:27;;;;;;;46.67;26.88;;;10.10;99.90;;;;;;6340168;22;19999;-78
2022/10/17 05:38:52;;;;;;;54.42;26.13;;;10.10;99.90;;;;;;6340075;22;20052;-79
2022/10/17 05:41:19;;;;;;;43.67;24.50;;;10.20;99.90;;;;;;6339235;22;20358;-79
2022/10/17 05:43:45;;;;;;;45.33;24.38;;;10.20;99.90;;;;;;6339333;22;20066;-82
2022/10/17 05:46:12;;;;;;;50.78;24.27;;;10.20;99.90;;;;;;6339545;22;20419;-79
2022/10/17 05:48:37;;;;;;;54.00;24.60;;;10.30;99.90;;;;;;6339889;22;20060;-80
2022/10/17 05:51:07;;;;;;;50.45;24.88;;;10.40;99.90;;;;;;6312488;22;20396;-79
2022/10/17 05:53:35;;;;;;;44.40;23.95;;;10.40;99.90;;;;;;6312358;22;20082;-78
2022/10/17 05:56:03;;;;;;;48.70;23.63;;;10.50;99.90;;;;;;6339457;22;19995;-78
2022/10/17 05:58:30;;;;;;;52.88;24.23;;;10.50;99.90;;;;;;6339760;22;19994;-80
2022/10/17 06:01:02;;;;;;;47.10;22.80;;;10.60;99.90;;;;;;6339728;22;20029;-78
2022/10/17 06:03:28;;;;;;;45.75;21.50;;;10.60;99.90;;;;;;6339631;22;19995;-80
2022/10/17 06:05:54;;;;;;;49.00;21.80;;;10.60;99.90;;;;;;6312027;22;20407;-80
2022/10/17 06:08:21;;;;;;;39.55;19.70;;;10.70;99.90;;;;;;6339488;22;20002;-82
2022/10/17 06:10:49;;;;;;;44.15;18.52;;;10.80;99.90;;;;;;6312131;22;20050;-81
2022/10/17 06:13:16;;;;;;;40.78;18.23;;;10.90;99.90;;;;;;6339536;22;19987;-79
2022/10/17 06:15:42;;;;;;;44.80;20.20;;;11.00;99.90;;;;;;6339901;22;20069;-80
2022/10/17 06:18:12;;;;;;;47.78;19.38;;;11.10;99.90;;;;;;6311491;22;20403;-81
2022/10/17 06:20:38;;;;;;;36.97;19.40;;;11.20;99.90;;;;;;6338506;22;19994;-81
2022/10/17 06:23:05;;;;;;;42.58;20.40;;;11.30;99.90;;;;;;6337793;22;20639;-81
2022/10/17 06:25:33;;;;;;;40.20;21.20;;;11.50;99.90;;;;;;6339653;22;20041;-81
2022/10/17 06:27:59;;;;;;;38.58;20.45;;;11.60;99.90;;;;;;6339413;22;20049;-80
2022/10/17 06:30:25;;;;;;;45.13;21.90;;;11.70;99.90;;;;;;6339133;22;20312;-79
2022/10/17 06:32:53;;;;;;;43.50;21.27;;;11.80;99.90;;;;;;6339059;22;20005;-78
2022/10/17 06:35:20;;;;;;;43.20;19.17;;;12.00;99.90;;;;;;6339544;22;19998;-80
2022/10/17 06:37:45;;;;;;;33.88;17.58;;;12.00;99.90;;;;;;6339225;22;19987;-79
2022/10/17 06:40:13;;;;;;;38.72;17.15;;;12.20;99.90;;;;;;6339434;22;19991;-80
2022/10/17 06:42:40;;;;;;;35.88;18.25;;;12.20;99.90;;;;;;6339312;22;20324;-78
2022/10/17 06:45:06;;;;;;;40.80;16.23;;;12.30;99.90;;;;;;6338574;22;19999;-81
2022/10/17 06:47:33;;;;;;;36.50;16.25;;;12.40;99.90;;;;;;6312072;22;20024;-80
2022/10/17 06:49:58;;;;;;;31.08;15.15;;;12.50;99.90;;;;;;6338435;22;20044;-79
2022/10/17 06:52:24;;;;;;;37.00;16.55;;;12.60;99.90;;;;;;6311442;22;19991;-79
2022/10/17 06:54:53;;;;;;;27.95;15.25;;;12.80;99.90;;;;;;6311730;22;19999;-80
2022/10/17 06:57:18;;;;;;;29.90;15.35;;;12.90;99.90;;;;;;6338977;22;20043;-80
2022/10/17 06:59:44;;;;;;;33.15;14.77;;;12.90;99.90;;;;;;6338891;22;20070;-79
2022/10/17 07:02:10;;;;;;;28.75;15.07;;;13.00;99.90;;;;;;6339161;22;20083;-79
2022/10/17 07:04:36;;;;;;;31.50;15.15;;;13.10;99.90;;;;;;6339131;22;19997;-78
2022/10/17 07:07:02;;;;;;;28.67;15.40;;;13.20;99.90;;;;;;6338635;22;19999;-79
2022/10/17 07:09:30;;;;;;;26.33;14.98;;;13.20;99.90;;;;;;6339260;22;19987;-78
2022/10/17 07:11:56;;;;;;;31.00;15.95;;;13.20;99.90;;;;;;6338971;22;19995;-78
2022/10/17 07:14:22;;;;;;;38.22;16.42;;;13.30;99.90;;;;;;6339236;22;19991;-77
2022/10/17 07:16:48;;;;;;;23.20;15.07;;;13.40;99.90;;;;;;6339621;22;20061;-79
2022/10/17 07:19:14;;;;;;;26.27;14.38;;;13.40;99.90;;;;;;6311757;22;19999;-79
2022/10/17 07:21:40;;;;;;;25.90;14.10;;;13.50;99.90;;;;;;6312105;22;20311;-78
2022/10/17 07:24:06;;;;;;;27.50;14.27;;;13.60;99.90;;;;;;6339357;22;19998;-79
2022/10/17 07:26:32;;;;;;;28.60;16.25;;;13.70;99.90;;;;;;6339387;22;19995;-79
2022/10/17 07:28:58;;;;;;;24.55;14.65;;;13.80;99.90;;;;;;6339517;22;20029;-80
2022/10/17 07:31:23;;;;;;;28.38;15.30;;;14.00;99.90;;;;;;6311013;22;20001;-79
2022/10/17 07:33:49;;;;;;;21.20;14.45;;;14.10;99.90;;;;;;6338510;22;20056;-77
2022/10/17 07:36:16;;;;;;;34.17;15.43;;;14.10;99.90;;;;;;6311864;22;20308;-79
2022/10/17 07:38:42;;;;;;;28.63;14.27;;;14.20;99.90;;;;;;6339425;22;19991;-79
2022/10/17 07:41:09;;;;;;;29.58;14.48;;;14.30;99.90;;;;;;6339307;22;20002;-77
2022/10/17 07:43:35;;;;;;;23.65;13.55;;;14.40;99.90;;;;;;6339305;22;20090;-79
2022/10/17 07:46:02;;;;;;;28.73;14.80;;;14.40;99.90;;;;;;6311597;22;20025;-78
2022/10/17 07:48:29;;;;;;;23.02;14.65;;;14.50;99.90;;;;;;6338722;22;19999;-80
2022/10/17 07:50:55;;;;;;;26.45;15.02;;;14.60;99.90;;;;;;6339090;22;19999;-79
2022/10/17 07:53:21;;;;;;;23.20;14.10;;;14.70;99.90;;;;;;6338998;22;20002;-79
2022/10/17 07:55:48;;;;;;;30.35;15.23;;;14.70;99.90;;;;;;6338915;22;20044;-78
2022/10/17 07:58:14;;;;;;;31.92;15.10;;;14.70;99.90;;;;;;6339171;22;20002;-79
2022/10/17 08:00:40;;;;;;;23.92;14.60;;;14.90;99.90;;;;;;6339506;22;19990;-80
2022/10/17 08:03:06;;;;;;;24.98;13.02;;;15.00;99.90;;;;;;6338928;22;20303;-80
2022/10/17 08:05:33;;;;;;;22.98;13.18;;;15.10;99.90;;;;;;6339272;22;19998;-79
2022/10/17 08:07:59;;;;;;;18.60;11.35;;;15.20;99.90;;;;;;6340717;22;19995;-79
2022/10/17 08:10:28;;;;;;;16.73;11.25;;;15.30;99.90;;;;;;6313022;22;20002;-78
2022/10/17 08:12:55;;;;;;;23.45;12.75;;;15.40;99.90;;;;;;6340109;22;19991;-79
2022/10/17 08:15:22;;;;;;;22.00;12.13;;;15.40;99.90;;;;;;6340293;22;19999;-82
2022/10/17 08:17:47;;;;;;;23.45;12.20;;;15.50;99.90;;;;;;6341086;22;20396;-78
2022/10/17 08:20:14;;;;;;;18.83;11.57;;;15.60;99.90;;;;;;6340222;22;19991;-81
2022/10/17 08:22:40;;;;;;;20.27;12.45;;;15.60;99.90;;;;;;6313172;22;20085;-80
2022/10/17 08:25:06;;;;;;;20.50;11.90;;;15.80;99.90;;;;;;6340471;22;20076;-80
2022/10/17 08:27:33;;;;;;;23.45;11.32;;;15.90;99.90;;;;;;6313589;22;20054;-79
2022/10/17 08:30:00;;;;;;;18.90;10.57;;;15.90;99.90;;;;;;6313399;22;20069;-79
2022/10/17 08:32:27;;;;;;;18.92;10.63;;;16.00;99.90;;;;;;6340889;22;20019;-78
2022/10/17 08:34:54;;;;;;;20.45;11.10;;;16.20;99.90;;;;;;6340677;22;20018;-79
2022/10/17 08:37:21;;;;;;;19.10;11.45;;;16.20;99.90;;;;;;6340421;22;20361;-79
2022/10/17 08:39:46;;;;;;;20.08;11.18;;;16.40;99.90;;;;;;6341051;22;20062;-78
2022/10/17 08:42:26;;;;;;;18.42;11.48;;;16.50;99.90;;;;;;6341095;22;20034;-78
2022/10/17 08:45:17;;;;;;;15.32;10.18;;;16.70;99.90;;;;;;6340722;22;20002;-78
2022/10/17 08:48:03;;;;;;;20.10;11.43;;;17.00;99.90;;;;;;6340955;22;20005;-80
2022/10/17 08:50:47;;;;;;;19.20;11.52;;;17.10;99.90;;;;;;6340553;22;19994;-81
2022/10/17 08:53:21;;;;;;;20.98;12.73;;;17.20;99.90;;;;;;6340822;22;20335;-79
2022/10/17 08:55:49;;;;;;;19.17;12.20;;;17.40;99.90;;;;;;6340827;22;20018;-78
2022/10/17 08:58:25;;;;;;;21.15;11.57;;;17.50;99.70;;;;;;6340829;22;20070;-80
2022/10/17 09:01:02;;;;;;;19.27;10.60;;;17.60;99.90;;;;;;6340977;22;19991;-77
2022/10/17 09:03:56;;;;;;;21.60;10.43;;;17.80;99.90;;;;;;6340905;22;20407;-78
2022/10/17 09:06:28;;;;;;;14.90;9.40;;;17.90;97.00;;;;;;6340589;22;19991;-78
2022/10/17 09:09:09;;;;;;;19.38;10.23;;;18.00;95.90;;;;;;6340787;22;20065;-79
2022/10/17 09:12:32;;;;;;;20.17;9.93;;;18.10;95.30;;;;;;6338653;22;19997;-78
2022/10/17 09:15:20;;;;;;;18.88;10.25;;;18.20;99.90;;;;;;6274322;22;20005;-78
2022/10/17 09:17:58;;;;;;;14.85;8.95;;;18.30;94.00;;;;;;6340599;22;20052;-78
2022/10/17 09:20:32;;;;;;;18.48;9.65;;;18.50;94.90;;;;;;6339826;22;20346;-77
2022/10/17 09:23:24;;;;;;;16.85;9.63;;;18.70;95.40;;;;;;6340331;22;20022;-80
2022/10/17 09:25:53;;;;;;;16.27;9.07;;;18.80;92.40;;;;;;6312798;22;20117;-77
2022/10/17 09:28:27;;;;;;;15.82;9.20;;;18.90;90.10;;;;;;6340874;22;20022;-77
2022/10/17 09:30:56;;;;;;;15.43;9.55;;;19.20;91.00;;;;;;6312995;22;20060;-77
2022/10/17 09:33:46;;;;;;;17.17;8.57;;;19.30;91.00;;;;;;6312677;22;20026;-78
2022/10/17 09:36:15;;;;;;;14.05;8.38;;;19.50;90.20;;;;;;6340704;22;19998;-77
2022/10/17 09:38:43;;;;;;;15.80;8.93;;;19.70;84.70;;;;;;6340628;22;19999;-78
2022/10/17 09:41:26;;;;;;;19.15;8.55;;;19.70;87.00;;;;;;6340034;22;20081;-77
2022/10/17 09:43:56;;;;;;;21.10;9.57;;;19.80;82.60;;;;;;6312980;22;20051;-77
2022/10/17 09:46:33;;;;;;;14.43;8.23;;;20.10;81.20;;;;;;6312572;22;20320;-77
2022/10/17 09:49:30;;;;;;;15.98;9.65;;;20.20;80.70;;;;;;6340565;22;20022;-77
2022/10/17 09:51:56;;;;;;;17.75;9.95;;;20.60;80.90;;;;;;6338433;22;19999;-77
2022/10/17 09:54:47;;;;;;;21.00;9.40;;;20.60;77.80;;;;;;6340434;22;20002;-78
2022/10/17 09:57:14;;;;;;;14.93;9.60;;;20.90;79.20;;;;;;6340318;22;20018;-78
2022/10/17 09:59:42;;;;;;;15.35;9.43;;;20.90;73.30;;;;;;6312761;22;20030;-78
2022/10/17 10:02:16;;;;;;;12.90;8.55;;;21.10;73.20;;;;;;6312569;22;19991;-76
2022/10/17 10:05:00;;;;;;;15.20;8.55;;;21.20;73.30;;;;;;6340207;22;20069;-77
2022/10/17 10:07:32;;;;;;;16.00;8.70;;;21.40;72.80;;;;;;6312413;22;20003;-77
2022/10/17 10:09:59;;;;;;;14.43;7.90;;;21.70;73.90;;;;;;6312736;22;19995;-77
2022/10/17 10:12:31;;;;;;;19.45;8.50;;;21.90;70.80;;;;;;6340252;22;20047;-77
2022/10/17 10:14:58;;;;;;;13.13;8.52;;;;;;;;;;6340025;22;20002;-77
2022/10/17 10:17:40;;;;;;;15.70;9.30;;;22.20;67.20;;;;;;6340291;22;19987;-77
2022/10/17 10:20:32;;;;;;;20.25;9.07;;;22.40;69.60;;;;;;6340058;22;20277;-76
2022/10/17 10:23:20;;;;;;;15.00;9.00;;;22.50;64.30;;;;;;6340098;22;19994;-76
2022/10/17 10:25:54;;;;;;;13.43;8.30;;;;;;;;;;6340047;22;20001;-76
2022/10/17 10:28:22;;;;;;;16.38;8.68;;;;;;;;;;6339824;22;20062;-77
2022/10/17 10:30:50;;;;;;;11.82;7.60;;;;;;;;;;6339225;22;19995;-78
2022/10/17 10:33:19;;;;;;;13.88;7.43;;;;;;;;;;6340126;22;20089;-76
2022/10/17 10:35:51;;;;;;;11.88;8.60;;;;;;;;;;6339529;22;20403;-80
2022/10/17 10:38:17;;;;;;;17.23;9.20;;;;;;;;;;6339729;22;20404;-77
2022/10/17 10:40:49;;;;;;;13.77;8.45;;;;;;;;;;6339637;22;19994;-79
2022/10/17 10:43:24;;;;;;;12.15;7.85;;;;;;;;;;6339522;22;19990;-77
2022/10/17 10:45:52;;;;;;;8.40;7.03;;;;;;;;;;6339543;22;20308;-78
2022/10/17 10:48:19;;;;;;;11.50;8.35;;;;;;;;;;6339571;22;20333;-77
2022/10/17 10:50:48;;;;;;;13.57;8.10;;;;;;;;;;6339692;22;20070;-77
2022/10/17 10:53:20;;;;;;;14.77;8.90;;;;;;;;;;6339844;22;20399;-78
2022/10/17 10:55:51;;;;;;;12.30;8.75;;;;;;;;;;6339914;22;19995;-78
2022/10/17 10:58:28;;;;;;;16.17;7.88;;;;;;;;;;6339757;22;20073;-77
2022/10/17 11:00:56;;;;;;;11.55;9.30;;;;;;;;;;6312153;22;20303;-78
2022/10/17 11:03:51;;;;;;;16.00;10.18;;;;;;;;;;6339753;22;20006;-80
2022/10/17 11:06:23;;;;;;;14.75;9.43;;;;;;;;;;6183719;23;20001;-77
2022/10/17 11:08:57;;;;;;;15.13;8.98;;;;;;;;;;6183665;23;20005;-78
2022/10/17 11:11:32;;;;;;;14.95;9.25;;;;;;;;;;6183536;23;19997;-77
2022/10/17 11:14:05;;;;;;;16.50;8.95;;;;;;;;;;6183790;23;20422;-78
2022/10/17 11:16:39;;;;;;;12.25;8.32;;;;;;;;;;6183773;23;20004;-77
2022/10/17 11:19:05;;;;;;;18.35;8.65;;;;;;;;;;6158361;23;20001;-77
2022/10/17 11:21:31;;;;;;;15.60;9.52;;;;;;;;;;6183587;23;20001;-77
2022/10/17 11:24:16;;;;;;;14.20;8.05;;;;;;;;;;6183736;23;20488;-79
2022/10/17 11:26:46;;;;;;;11.30;8.82;;;;;;;;;;6158494;23;20009;-76
2022/10/17 11:29:12;;;;;;;15.38;9.13;;;;;;;;;;6183450;23;20052;-78
2022/10/17 11:31:41;;;;;;;12.98;9.40;;;;;;;;;;6183358;23;20008;-77
2022/10/17 11:34:13;;;;;;;11.93;8.25;;;;;;;;;;6183562;23;20076;-78
2022/10/17 11:36:41;;;;;;;9.90;8.90;;;;;;;;;;6183504;23;20088;-77
2022/10/17 11:39:13;;;;;;;13.32;9.73;;;;;;;;;;6158256;23;19997;-78
2022/10/17 11:41:43;;;;;;;12.00;8.23;;;;;;;;;;6194096;22;20091;-77
2022/10/17 11:44:28;;;;;;;9.23;8.32;;;;;;;;;;6308240;22;20419;-77
2022/10/17 11:46:57;;;;;;;12.60;8.73;;;;;;;;;;6307980;22;20090;-78
2022/10/17 11:49:32;;;;;;;16.42;8.93;;;;;;;;;;6307797;22;20066;-79
2022/10/17 11:52:17;;;;;;;14.70;8.80;;;;;;;;;;6280752;22;20412;-76
2022/10/17 11:54:48;;;;;;;14.38;8.75;;;;;;;;;;6280894;22;20014;-77
2022/10/17 11:57:26;;;;;;;13.55;8.70;;;;;;;;;;6308366;22;19995;-78
2022/10/17 11:59:52;;;;;;;10.98;8.88;;;;;;;;;;6307839;22;19997;-77
2022/10/17 12:02:27;;;;;;;11.15;7.65;;;;;;;;;;6308227;22;19987;-78
2022/10/17 12:05:03;;;;;;;11.38;7.15;;;;;;;;;;6307706;22;20082;-79
2022/10/17 12:07:36;;;;;;;12.88;7.55;;;;;;;;;;6308221;22;19995;-77
2022/10/17 12:10:16;;;;;;;11.77;8.07;;;;;;;;;;6307788;22;20372;-77
2022/10/17 12:12:43;;;;;;;8.60;7.70;;;;;;;;;;6308404;22;19995;-77
2022/10/17 12:15:15;;;;;;;10.02;7.40;;;;;;;;;;6307894;22;20096;-77
2022/10/17 12:17:45;;;;;;;12.73;8.02;;;;;;;;;;6307845;22;20014;-78
2022/10/17 12:20:23;;;;;;;12.18;7.72;;;;;;;;;;6280130;22;20132;-77
2022/10/17 12:22:50;;;;;;;12.10;6.93;;;;;;;;;;6280464;22;19999;-79
2022/10/17 12:25:21;;;;;;;10.68;7.97;;;;;;;;;;6307309;22;20003;-78
2022/10/17 12:27:48;;;;;;;15.87;8.37;;;;;;;;;;6279631;22;20090;-76
2022/10/17 12:30:16;;;;;;;14.73;10.02;;;;;;;;;;6307668;22;19995;-78
2022/10/17 12:33:01;;;;;;;13.73;7.85;;;;;;;;;;6307698;22;20078;-77
2022/10/17 12:35:29;;;;;;;12.05;7.88;;;;;;;;;;6280451;22;19999;-78
2022/10/17 12:37:55;;;;;;;14.50;7.50;;;;;;;;;;6280656;22;19995;-76
2022/10/17 12:40:36;;;;;;;15.07;7.85;;;;;;;;;;6307939;22;20066;-78
2022/10/17 12:43:15;;;;;;;9.65;7.57;;;;;;;;;;6309730;22;20011;-78
2022/10/17 12:45:51;;;;;;;11.05;7.75;;;;;;;;;;6339127;22;20417;-76
2022/10/17 12:48:36;;;;;;;10.98;8.07;;;;;;;;;;6310980;22;20021;-78
2022/10/17 12:51:12;;;;;;;11.57;7.25;;;;;;;;;;6338550;22;20078;-79
2022/10/17 12:53:48;;;;;;;11.07;7.68;;;;;;;;;;6311680;22;20128;-78
2022/10/17 12:56:15;;;;;;;14.55;7.82;;;;;;;;;;6312869;22;19998;-78
2022/10/17 12:58:44;;;;;;;10.55;7.55;;;;;;;;;;6340561;22;20048;-77
2022/10/17 13:01:16;;;;;;;10.75;7.63;;;;;;;;;;6340492;22;20040;-77
2022/10/17 13:03:43;;;;;;;13.05;7.25;;;;;;;;;;6340764;22;20077;-78
2022/10/17 13:06:23;;;;;;;12.52;7.90;;;;;;;;;;6340587;22;19995;-77
2022/10/17 13:08:54;;;;;;;13.63;8.18;;;;;;;;;;6341035;22;20022;-77
2022/10/17 13:11:23;;;;;;;11.87;8.00;;;;;;;;;;6340727;22;20065;-76
2022/10/17 13:13:52;;;;;;;13.10;7.50;;;;;;;;;;6340245;22;20067;-78